Terminal Aerodrome Forecast
Issued by NWS

Home | Current Version | Previous Version | Graphics & Text | Print | Product List | Glossary On
Versions: 1 2 3 4 5 6 7 8 9 10 11 12 13 14 15 16 17 18 19 20 21 22
000
FTUS43 KTOP 030802 AAB
TAFFOE
TAF AMD
KFOE 030802Z 0308/0406 09004KT 4SM BR VCSH BKN007 OVC011
      TEMPO 0310/0313 2SM BR OVC005
     FM031400 01005KT P6SM BKN015
     FM031900 03006KT P6SM BKN050=

USA.gov is the U.S. government's official web portal to all federal, state and local government web resources and services.